createdAt,value
2018-06-29T00:00:00.977Z,18.10
2018-06-29T00:02:32.209Z,18.10
2018-06-29T00:05:04.544Z,18.00
2018-06-29T00:07:35.957Z,18.00
2018-06-29T00:12:40.903Z,17.90
2018-06-29T00:15:12.308Z,17.90
2018-06-29T00:17:43.749Z,17.80
2018-06-29T00:20:16.631Z,17.80
2018-06-29T00:22:48.254Z,17.80
2018-06-29T00:25:19.644Z,17.70
2018-06-29T00:27:51.844Z,17.70
2018-06-29T00:30:23.252Z,17.60
2018-06-29T00:32:54.590Z,17.50
2018-06-29T00:35:26.280Z,17.50
2018-06-29T00:37:58.023Z,17.40
2018-06-29T00:40:30.122Z,17.40
2018-06-29T00:43:01.761Z,17.30
2018-06-29T00:45:33.315Z,17.30
2018-06-29T00:48:05.391Z,17.30
2018-06-29T00:50:36.726Z,17.20
2018-06-29T00:53:08.061Z,17.20
2018-06-29T00:55:39.538Z,17.10
2018-06-29T00:58:10.880Z,17.10
2018-06-29T01:00:42.102Z,17.00
2018-06-29T01:03:13.683Z,17.00
2018-06-29T01:05:45.858Z,16.90
2018-06-29T01:08:17.095Z,16.90
2018-06-29T01:10:48.586Z,16.80
2018-06-29T01:13:19.717Z,16.80
2018-06-29T01:15:51.337Z,16.70
2018-06-29T01:18:22.422Z,16.60
2018-06-29T01:20:53.717Z,16.60
2018-06-29T01:23:25.169Z,16.60
2018-06-29T01:25:56.672Z,16.50
2018-06-29T01:28:28.973Z,16.50
2018-06-29T01:31:00.807Z,16.50
2018-06-29T01:33:31.681Z,16.40
2018-06-29T01:36:02.765Z,16.40
2018-06-29T01:38:33.850Z,16.30
2018-06-29T01:41:04.901Z,16.30
2018-06-29T01:43:35.952Z,16.20
2018-06-29T01:46:06.982Z,16.20
2018-06-29T01:48:39.079Z,16.10
2018-06-29T01:51:12.168Z,16.00
2018-06-29T01:53:44.003Z,16.00
2018-06-29T01:56:14.933Z,16.00
2018-06-29T01:58:45.924Z,15.90
2018-06-29T02:01:18.588Z,15.90
2018-06-29T02:03:49.714Z,15.90
2018-06-29T02:06:20.777Z,15.90
2018-06-29T02:08:51.804Z,15.80
2018-06-29T02:11:23.898Z,15.80
2018-06-29T02:13:54.973Z,15.70
2018-06-29T02:16:25.802Z,15.70
2018-06-29T02:18:57.521Z,15.70
2018-06-29T02:21:28.602Z,15.60
2018-06-29T02:23:59.465Z,15.60
2018-06-29T02:29:01.298Z,15.50
2018-06-29T02:31:32.380Z,15.50
2018-06-29T02:34:03.237Z,15.40
2018-06-29T02:36:35.154Z,15.40
2018-06-29T02:39:09.588Z,15.40
2018-06-29T02:41:40.779Z,15.40
2018-06-29T02:44:11.697Z,15.40
2018-06-29T02:46:42.863Z,15.30
2018-06-29T02:49:13.965Z,15.30
2018-06-29T02:51:45.006Z,15.30
2018-06-29T02:54:16.305Z,15.20
2018-06-29T02:56:47.426Z,15.20
2018-06-29T02:59:18.529Z,15.20
2018-06-29T03:01:49.633Z,15.20
2018-06-29T03:04:20.657Z,15.20
2018-06-29T03:06:51.626Z,15.10
2018-06-29T03:09:22.513Z,15.10
2018-06-29T03:11:53.781Z,15.00
2018-06-29T03:14:25.600Z,15.00
2018-06-29T03:16:56.694Z,15.00
2018-06-29T03:19:27.769Z,14.90
2018-06-29T03:21:58.980Z,14.90
2018-06-29T03:24:30.969Z,14.90
2018-06-29T03:27:02.753Z,14.90
2018-06-29T03:29:34.325Z,15.00
2018-06-29T03:32:05.530Z,15.00
2018-06-29T03:37:08.549Z,15.00
2018-06-29T03:42:09.895Z,14.90
2018-06-29T03:44:40.936Z,14.90
2018-06-29T03:47:11.833Z,14.90
2018-06-29T03:49:43.850Z,14.90
2018-06-29T03:52:15.043Z,14.80
2018-06-29T03:54:45.949Z,14.80
2018-06-29T03:59:48.545Z,14.70
2018-06-29T04:04:49.695Z,14.80
2018-06-29T04:07:20.874Z,14.80
2018-06-29T04:12:22.250Z,14.80
2018-06-29T04:14:53.380Z,14.90
2018-06-29T04:17:24.166Z,14.90
2018-06-29T04:19:55.614Z,14.90
2018-06-29T04:22:27.120Z,14.90
2018-06-29T04:25:02.142Z,15.00
2018-06-29T04:27:33.655Z,15.00
2018-06-29T04:30:05.845Z,15.00
2018-06-29T04:32:37.322Z,15.10
2018-06-29T04:35:09.389Z,15.10
2018-06-29T04:37:40.325Z,15.10
2018-06-29T04:40:11.927Z,15.20
2018-06-29T04:42:42.863Z,15.20
2018-06-29T04:45:13.850Z,15.20
2018-06-29T04:47:44.781Z,15.20
2018-06-29T04:50:15.818Z,15.20
2018-06-29T04:52:47.039Z,15.30
2018-06-29T04:55:17.897Z,15.30
2018-06-29T04:57:49.323Z,15.30
2018-06-29T05:00:21.416Z,15.40
2018-06-29T05:02:52.754Z,15.40
2018-06-29T05:05:23.902Z,15.40
2018-06-29T05:07:55.333Z,15.50
2018-06-29T05:10:26.652Z,15.50
2018-06-29T05:12:57.541Z,15.50
2018-06-29T05:15:28.429Z,15.60
2018-06-29T05:17:59.304Z,15.60
2018-06-29T05:20:30.159Z,15.60
2018-06-29T05:23:01.104Z,15.50
2018-06-29T05:25:31.975Z,15.50
2018-06-29T05:28:02.900Z,15.40
2018-06-29T05:30:33.827Z,15.40
2018-06-29T05:33:04.852Z,15.40
2018-06-29T05:38:06.489Z,15.30
2018-06-29T05:40:37.317Z,15.30
2018-06-29T05:43:09.232Z,15.30
2018-06-29T05:45:40.591Z,15.30
2018-06-29T05:48:11.597Z,15.30
2018-06-29T05:50:42.623Z,15.40
2018-06-29T05:53:13.513Z,15.50
2018-06-29T05:55:44.382Z,15.50
2018-06-29T05:58:15.344Z,15.60
2018-06-29T06:00:46.405Z,15.70
2018-06-29T06:03:17.406Z,15.80
2018-06-29T06:05:48.300Z,15.90
2018-06-29T06:08:19.198Z,16.10
2018-06-29T06:10:51.639Z,16.10
2018-06-29T06:13:22.634Z,16.20
2018-06-29T06:15:53.493Z,16.30
2018-06-29T06:18:24.413Z,16.40
2018-06-29T06:20:55.294Z,16.50
2018-06-29T06:23:26.600Z,16.60
2018-06-29T06:25:57.481Z,16.60
2018-06-29T06:28:28.378Z,16.70
2018-06-29T06:30:59.258Z,16.70
2018-06-29T06:33:32.813Z,16.70
2018-06-29T06:36:03.772Z,16.70
2018-06-29T06:41:05.226Z,16.90
2018-06-29T06:43:36.160Z,17.00
2018-06-29T06:46:07.097Z,17.00
2018-06-29T06:48:38.031Z,17.10
2018-06-29T06:53:39.006Z,17.00
2018-06-29T06:56:09.925Z,17.00
2018-06-29T06:58:40.839Z,16.90
2018-06-29T07:01:11.853Z,16.90
2018-06-29T07:03:42.771Z,17.00
2018-06-29T07:06:13.618Z,17.10
2018-06-29T07:08:45.133Z,17.10
2018-06-29T07:11:16.303Z,17.10
2018-06-29T07:13:47.478Z,17.20
2018-06-29T07:16:18.463Z,17.20
2018-06-29T07:18:49.409Z,17.30
2018-06-29T07:21:20.478Z,17.30
2018-06-29T07:23:53.835Z,17.30
2018-06-29T07:26:24.754Z,17.40
2018-06-29T07:28:55.970Z,17.40
2018-06-29T07:31:26.933Z,17.50
2018-06-29T07:33:57.867Z,17.60
2018-06-29T07:36:28.854Z,17.60
2018-06-29T07:39:00.399Z,17.60
2018-06-29T07:41:31.784Z,17.60
2018-06-29T07:44:03.042Z,17.50
2018-06-29T07:46:33.929Z,17.50
2018-06-29T07:49:04.799Z,17.50
2018-06-29T07:51:35.785Z,17.60
2018-06-29T07:54:07.644Z,17.60
2018-06-29T07:56:39.047Z,17.70
2018-06-29T07:59:10.325Z,17.70
2018-06-29T08:01:41.274Z,17.80
2018-06-29T08:06:42.699Z,18.00
2018-06-29T08:09:13.370Z,18.10
2018-06-29T08:11:44.059Z,18.30
2018-06-29T08:14:14.697Z,18.40
2018-06-29T08:16:45.453Z,18.50
2018-06-29T08:21:46.961Z,18.60
2018-06-29T08:24:17.607Z,18.60
2018-06-29T08:26:48.381Z,18.70
2018-06-29T08:29:19.009Z,18.70
2018-06-29T08:31:49.709Z,18.90
2018-06-29T08:34:20.930Z,18.90
2018-06-29T08:36:51.648Z,18.90
2018-06-29T08:39:23.057Z,18.90
2018-06-29T08:41:53.741Z,18.90
2018-06-29T08:44:24.531Z,19.00
2018-06-29T08:46:55.276Z,19.10
2018-06-29T08:49:26.011Z,19.10
2018-06-29T08:51:56.757Z,19.10
2018-06-29T08:54:29.381Z,19.20
2018-06-29T08:57:00.125Z,19.30
2018-06-29T08:59:31.267Z,19.30
2018-06-29T09:02:02.087Z,19.40
2018-06-29T09:04:32.977Z,19.60
2018-06-29T09:07:03.717Z,19.70
2018-06-29T09:09:34.688Z,19.80
2018-06-29T09:12:06.190Z,19.90
2018-06-29T09:14:37.094Z,19.90
2018-06-29T09:17:08.318Z,19.90
2018-06-29T09:19:40.410Z,19.80
2018-06-29T09:22:11.593Z,19.70
2018-06-29T09:27:14.414Z,19.80
2018-06-29T09:29:45.117Z,20.00
2018-06-29T09:32:15.949Z,20.20
2018-06-29T09:34:46.681Z,20.20
2018-06-29T09:37:17.369Z,20.30
2018-06-29T09:39:48.444Z,20.40
2018-06-29T09:42:19.166Z,20.30
2018-06-29T09:44:49.833Z,20.40
2018-06-29T09:47:21.009Z,20.50
2018-06-29T09:49:51.662Z,20.60
2018-06-29T09:52:22.583Z,20.70
2018-06-29T09:57:26.112Z,21.00
2018-06-29T09:59:56.801Z,21.10
2018-06-29T10:02:31.689Z,21.20
2018-06-29T10:04:58.255Z,21.30
2018-06-29T10:07:28.909Z,21.40
2018-06-29T10:10:00.067Z,21.50
2018-06-29T10:12:30.726Z,21.50
2018-06-29T10:15:01.551Z,21.50
2018-06-29T10:17:32.269Z,21.70
2018-06-29T10:20:03.090Z,21.80
2018-06-29T10:22:34.643Z,21.90
2018-06-29T10:25:05.901Z,21.70
2018-06-29T10:27:36.545Z,21.70
2018-06-29T10:30:08.245Z,21.70
2018-06-29T10:32:39.417Z,21.70
2018-06-29T10:35:10.631Z,21.90
2018-06-29T10:37:41.617Z,22.00
2018-06-29T10:40:12.375Z,22.20
2018-06-29T10:42:43.120Z,22.40
2018-06-29T10:45:13.840Z,22.40
2018-06-29T10:47:44.773Z,22.40
2018-06-29T10:50:15.705Z,22.30
2018-06-29T10:52:46.465Z,22.20
2018-06-29T10:55:17.129Z,22.10
2018-06-29T10:57:47.820Z,22.20
2018-06-29T11:00:18.462Z,22.20
2018-06-29T11:02:49.208Z,22.30
2018-06-29T11:05:19.946Z,22.40
2018-06-29T11:07:50.637Z,22.40
2018-06-29T11:10:21.441Z,22.50
2018-06-29T11:12:52.155Z,22.50
2018-06-29T11:17:53.382Z,22.60
2018-06-29T11:20:24.022Z,22.70
2018-06-29T11:22:54.774Z,22.80
2018-06-29T11:25:25.392Z,23.00
2018-06-29T11:27:56.645Z,23.10
2018-06-29T11:30:27.732Z,23.30
2018-06-29T11:32:58.408Z,23.30
2018-06-29T11:37:59.341Z,23.30
2018-06-29T11:40:30.012Z,23.30
2018-06-29T11:43:00.882Z,23.30
2018-06-29T11:45:31.541Z,23.40
2018-06-29T11:48:02.202Z,23.40
2018-06-29T11:50:32.905Z,23.40
2018-06-29T11:53:03.598Z,23.40
2018-06-29T11:55:34.229Z,23.50
2018-06-29T11:58:05.088Z,23.60
2018-06-29T12:00:35.764Z,23.60
2018-06-29T12:03:06.666Z,23.70
2018-06-29T12:05:37.351Z,23.80
2018-06-29T12:08:08.058Z,23.90
2018-06-29T12:10:38.806Z,24.00
2018-06-29T12:13:09.982Z,24.10
2018-06-29T12:15:40.648Z,24.10
2018-06-29T12:18:11.398Z,24.20
2018-06-29T12:20:42.351Z,24.30
2018-06-29T12:23:13.136Z,24.20
2018-06-29T12:25:43.813Z,24.20
2018-06-29T12:28:14.570Z,24.20
2018-06-29T12:30:45.393Z,24.20
2018-06-29T12:33:16.013Z,24.30
2018-06-29T12:35:46.718Z,24.30
2018-06-29T12:38:17.405Z,24.50
2018-06-29T12:40:48.277Z,24.60
2018-06-29T12:43:19.042Z,24.60
2018-06-29T12:45:49.754Z,24.60
2018-06-29T12:48:21.388Z,24.70
2018-06-29T12:50:52.448Z,24.70
2018-06-29T12:53:23.416Z,24.80
2018-06-29T12:55:54.900Z,24.80
2018-06-29T12:58:26.288Z,24.90
2018-06-29T13:00:57.353Z,25.00
2018-06-29T13:03:28.535Z,25.10
2018-06-29T13:05:59.446Z,25.10
2018-06-29T13:08:30.580Z,25.30
2018-06-29T13:11:01.435Z,25.40
2018-06-29T13:13:33.312Z,25.60
2018-06-29T13:16:04.225Z,25.50
2018-06-29T13:18:35.257Z,25.40
2018-06-29T13:21:06.313Z,25.40
2018-06-29T13:23:37.486Z,25.40
2018-06-29T13:26:10.234Z,25.50
2018-06-29T13:28:41.309Z,25.50
2018-06-29T13:31:12.449Z,25.60
2018-06-29T13:33:43.603Z,25.50
2018-06-29T13:36:15.475Z,25.60
2018-06-29T13:38:47.457Z,25.70
2018-06-29T13:41:19.209Z,25.80
2018-06-29T13:43:51.147Z,25.70
2018-06-29T13:46:22.937Z,25.60
2018-06-29T13:48:54.064Z,25.50
2018-06-29T13:51:25.085Z,25.50
2018-06-29T13:53:56.149Z,25.60
2018-06-29T13:56:27.806Z,25.80
2018-06-29T13:58:59.403Z,25.90
2018-06-29T14:01:30.574Z,25.80
2018-06-29T14:04:03.204Z,25.90
2018-06-29T14:06:34.490Z,25.90
2018-06-29T14:09:07.188Z,26.00
2018-06-29T14:11:39.334Z,26.00
2018-06-29T14:14:10.593Z,26.00
2018-06-29T14:16:41.853Z,25.90
2018-06-29T14:19:13.386Z,25.80
2018-06-29T14:21:44.825Z,25.80
2018-06-29T14:24:16.111Z,25.70
2018-06-29T14:26:47.225Z,25.70
2018-06-29T14:29:18.865Z,25.60
2018-06-29T14:31:51.486Z,25.40
2018-06-29T14:34:22.163Z,25.20
2018-06-29T14:36:52.901Z,25.10
2018-06-29T14:39:23.742Z,25.10
2018-06-29T14:41:54.425Z,25.20
2018-06-29T14:44:25.095Z,25.30
2018-06-29T14:46:55.777Z,25.30
2018-06-29T14:49:26.425Z,25.40
2018-06-29T14:51:57.439Z,25.50
2018-06-29T14:54:28.509Z,25.60
2018-06-29T14:56:59.169Z,25.60
2018-06-29T15:01:59.761Z,25.70
2018-06-29T15:04:30.498Z,25.80
2018-06-29T15:07:01.233Z,26.00
2018-06-29T15:09:31.961Z,26.00
2018-06-29T15:12:02.624Z,25.90
2018-06-29T15:14:33.321Z,25.80
2018-06-29T15:17:04.157Z,25.60
2018-06-29T15:19:34.792Z,25.30
2018-06-29T15:22:05.577Z,25.20
2018-06-29T15:24:36.303Z,25.10
2018-06-29T15:27:07.057Z,25.10
2018-06-29T15:29:37.702Z,25.10
2018-06-29T15:32:08.757Z,25.20
2018-06-29T15:34:39.888Z,25.30
2018-06-29T15:37:10.601Z,25.40
2018-06-29T15:39:41.378Z,25.60
2018-06-29T15:42:12.085Z,25.70
2018-06-29T15:44:43.247Z,25.90
2018-06-29T15:47:13.934Z,26.00
2018-06-29T15:49:45.793Z,26.00
2018-06-29T15:52:16.993Z,25.90
2018-06-29T15:54:48.092Z,25.90
2018-06-29T15:57:19.057Z,26.00
2018-06-29T15:59:51.311Z,26.00
2018-06-29T16:02:24.129Z,26.10
2018-06-29T16:04:57.299Z,26.20
2018-06-29T16:07:28.146Z,26.30
2018-06-29T16:09:58.814Z,26.30
2018-06-29T16:14:59.415Z,26.40
2018-06-29T16:17:30.149Z,26.30
2018-06-29T16:20:00.773Z,26.20
2018-06-29T16:25:02.012Z,26.30
2018-06-29T16:30:03.088Z,26.60
2018-06-29T16:32:33.916Z,26.70
2018-06-29T16:35:04.954Z,26.80
2018-06-29T16:37:35.606Z,26.70
2018-06-29T16:40:06.427Z,26.60
2018-06-29T16:42:37.570Z,26.50
2018-06-29T16:45:09.529Z,26.00
2018-06-29T16:47:41.321Z,25.80
2018-06-29T16:52:42.978Z,25.30
2018-06-29T16:55:15.797Z,25.30
2018-06-29T16:57:48.411Z,25.40
2018-06-29T17:00:19.702Z,25.50
2018-06-29T17:02:51.393Z,25.50
2018-06-29T17:05:23.017Z,25.60
2018-06-29T17:07:54.338Z,25.70
2018-06-29T17:10:25.653Z,25.80
2018-06-29T17:12:56.824Z,25.90
2018-06-29T17:15:29.002Z,26.00
2018-06-29T17:18:00.235Z,26.00
2018-06-29T17:20:31.385Z,26.10
2018-06-29T17:23:02.314Z,26.10
2018-06-29T17:25:33.503Z,26.10
2018-06-29T17:28:04.421Z,26.00
2018-06-29T17:30:36.440Z,25.90
2018-06-29T17:33:08.830Z,25.80
2018-06-29T17:35:41.557Z,25.80
2018-06-29T17:38:13.101Z,25.70
2018-06-29T17:40:44.046Z,25.70
2018-06-29T17:43:15.091Z,25.60
2018-06-29T17:45:46.785Z,25.50
2018-06-29T17:48:18.320Z,25.50
2018-06-29T17:50:49.942Z,25.50
2018-06-29T17:53:21.131Z,25.30
2018-06-29T17:55:52.614Z,25.10
2018-06-29T18:00:54.368Z,25.00
2018-06-29T18:03:27.150Z,24.80
2018-06-29T18:05:58.718Z,24.70
2018-06-29T18:08:29.647Z,24.60
2018-06-29T18:11:01.128Z,24.60
2018-06-29T18:13:32.784Z,24.50
2018-06-29T18:16:04.605Z,24.40
2018-06-29T18:18:36.301Z,24.30
2018-06-29T18:21:07.820Z,24.30
2018-06-29T18:23:39.426Z,24.30
2018-06-29T18:26:10.778Z,24.20
2018-06-29T18:28:41.926Z,24.30
2018-06-29T18:31:13.171Z,24.30
2018-06-29T18:33:45.789Z,24.20
2018-06-29T18:36:16.768Z,24.20
2018-06-29T18:41:20.359Z,24.10
2018-06-29T18:43:51.492Z,23.80
2018-06-29T18:46:22.478Z,23.70
2018-06-29T18:48:53.109Z,23.50
2018-06-29T18:51:23.912Z,23.40
2018-06-29T18:53:54.657Z,23.20
2018-06-29T18:56:25.759Z,23.10
2018-06-29T18:58:56.798Z,23.00
2018-06-29T19:01:27.615Z,22.90
2018-06-29T19:04:00.886Z,22.80
2018-06-29T19:06:33.403Z,22.60
2018-06-29T19:09:05.546Z,22.50
2018-06-29T19:11:36.432Z,22.30
2018-06-29T19:14:07.165Z,22.10
2018-06-29T19:16:38.212Z,21.90
2018-06-29T19:19:09.269Z,21.70
2018-06-29T19:21:40.473Z,21.50
2018-06-29T19:24:11.585Z,21.40
2018-06-29T19:26:42.709Z,21.20
2018-06-29T19:29:14.014Z,21.10
2018-06-29T19:31:44.918Z,21.00
2018-06-29T19:34:17.028Z,21.00
2018-06-29T19:39:18.029Z,21.00
2018-06-29T19:41:48.817Z,20.80
2018-06-29T19:44:19.529Z,20.70
2018-06-29T19:46:50.202Z,20.50
2018-06-29T19:49:21.018Z,20.40
2018-06-29T19:51:53.773Z,20.20
2018-06-29T19:54:26.029Z,20.10
2018-06-29T19:56:57.238Z,19.90
2018-06-29T19:59:29.192Z,19.70
2018-06-29T20:02:00.746Z,19.60
2018-06-29T20:04:31.901Z,19.50
2018-06-29T20:07:03.130Z,19.30
2018-06-29T20:09:34.787Z,19.20
2018-06-29T20:12:05.935Z,19.00
2018-06-29T20:14:38.963Z,18.90
2018-06-29T20:19:41.588Z,18.70
2018-06-29T20:22:12.909Z,18.50
2018-06-29T20:24:44.630Z,18.40
2018-06-29T20:27:15.874Z,18.30
2018-06-29T20:29:47.709Z,18.20
2018-06-29T20:32:18.965Z,18.10
2018-06-29T20:34:49.949Z,17.90
2018-06-29T20:37:21.036Z,17.80
2018-06-29T20:39:54.715Z,17.70
2018-06-29T20:42:25.793Z,17.60
2018-06-29T20:44:56.790Z,17.40
2018-06-29T20:47:27.843Z,17.20
2018-06-29T20:49:58.835Z,17.10
2018-06-29T20:52:30.022Z,17.00
2018-06-29T20:55:02.014Z,16.90
2018-06-29T20:57:33.030Z,16.80
2018-06-29T21:00:04.182Z,16.70
2018-06-29T21:02:35.249Z,16.60
2018-06-29T21:05:06.610Z,16.50
2018-06-29T21:07:37.706Z,16.40
2018-06-29T21:10:09.561Z,16.30
2018-06-29T21:12:41.349Z,16.20
2018-06-29T21:15:12.526Z,16.10
2018-06-29T21:17:43.711Z,16.00
2018-06-29T21:20:14.745Z,15.90
2018-06-29T21:22:45.766Z,15.80
2018-06-29T21:25:18.835Z,15.70
2018-06-29T21:27:50.796Z,15.60
2018-06-29T21:30:21.806Z,15.50
2018-06-29T21:32:53.921Z,15.40
2018-06-29T21:37:58.181Z,15.20
2018-06-29T21:40:30.108Z,15.10
2018-06-29T21:43:01.125Z,15.00
2018-06-29T21:45:32.265Z,15.00
2018-06-29T21:48:03.353Z,14.90
2018-06-29T21:50:34.338Z,14.80
2018-06-29T21:53:06.164Z,14.70
2018-06-29T21:55:38.280Z,14.60
2018-06-29T21:58:09.563Z,14.50
2018-06-29T22:00:42.573Z,14.40
2018-06-29T22:03:14.927Z,14.40
2018-06-29T22:05:46.777Z,14.30
2018-06-29T22:08:18.793Z,14.30
2018-06-29T22:10:50.094Z,14.30
2018-06-29T22:13:21.118Z,14.20
2018-06-29T22:15:53.893Z,14.20
2018-06-29T22:18:26.609Z,14.20
2018-06-29T22:20:57.502Z,14.20
2018-06-29T22:23:29.562Z,14.10
2018-06-29T22:28:34.572Z,14.10
2018-06-29T22:31:06.276Z,14.00
2018-06-29T22:33:38.682Z,14.00
2018-06-29T22:36:10.042Z,14.00
2018-06-29T22:38:41.395Z,14.00
2018-06-29T22:41:12.990Z,13.90
2018-06-29T22:43:45.718Z,13.90
2018-06-29T22:46:17.448Z,13.80
2018-06-29T22:48:49.174Z,13.70
2018-06-29T22:51:20.721Z,13.70
2018-06-29T22:53:52.519Z,13.60
2018-06-29T22:56:24.001Z,13.60
2018-06-29T22:58:55.850Z,13.50
2018-06-29T23:01:27.775Z,13.40
2018-06-29T23:04:00.270Z,13.30
2018-06-29T23:06:35.525Z,13.20
2018-06-29T23:09:08.762Z,13.20
2018-06-29T23:11:40.252Z,13.10
2018-06-29T23:14:11.701Z,13.10
2018-06-29T23:16:43.108Z,13.10
2018-06-29T23:19:15.345Z,13.00
2018-06-29T23:21:46.865Z,13.00
2018-06-29T23:24:18.444Z,13.00
2018-06-29T23:26:51.456Z,12.90
2018-06-29T23:29:23.651Z,12.90
2018-06-29T23:31:55.710Z,12.90
2018-06-29T23:34:27.689Z,12.80
2018-06-29T23:36:58.743Z,12.70
2018-06-29T23:39:30.138Z,12.70
2018-06-29T23:44:32.117Z,12.50
2018-06-29T23:47:03.702Z,12.40
2018-06-29T23:49:35.249Z,12.40
2018-06-29T23:52:07.315Z,12.30
2018-06-29T23:54:38.546Z,12.30
2018-06-29T23:59:39.910Z,12.20
